createdAt,value
2018-02-08T00:00:51.106Z,60.12
2018-02-08T00:03:18.026Z,61.28
2018-02-08T00:05:44.905Z,59.88
2018-02-08T00:08:11.745Z,59.65
2018-02-08T00:10:38.570Z,58.22
2018-02-08T00:13:05.414Z,57.13
2018-02-08T00:15:32.217Z,53.75
2018-02-08T00:17:59.070Z,67.22
2018-02-08T00:20:26.664Z,67.45
2018-02-08T00:22:53.554Z,52.70
2018-02-08T00:25:20.362Z,58.95
2018-02-08T00:27:47.198Z,63.42
2018-02-08T00:30:14.046Z,64.15
2018-02-08T00:32:40.910Z,63.03
2018-02-08T00:35:07.732Z,65.35
2018-02-08T00:37:34.989Z,66.03
2018-02-08T00:40:01.822Z,56.30
2018-02-08T00:42:28.673Z,61.00
2018-02-08T00:44:55.514Z,61.63
2018-02-08T00:47:23.125Z,56.42
2018-02-08T00:49:49.969Z,61.03
2018-02-08T00:52:16.810Z,57.58
2018-02-08T00:54:44.384Z,61.92
2018-02-08T00:57:11.214Z,67.35
2018-02-08T00:59:38.031Z,57.38
2018-02-08T01:02:04.862Z,64.90
2018-02-08T01:04:32.496Z,57.80
2018-02-08T01:06:59.333Z,75.05
2018-02-08T01:09:26.174Z,61.67
2018-02-08T01:11:53.161Z,68.47
2018-02-08T01:14:19.969Z,68.18
2018-02-08T01:16:46.789Z,66.12
2018-02-08T01:19:13.630Z,59.72
2018-02-08T01:21:40.450Z,67.82
2018-02-08T01:24:08.033Z,64.40
2018-02-08T01:26:35.565Z,60.28
2018-02-08T01:29:03.126Z,67.05
2018-02-08T01:31:30.229Z,68.55
2018-02-08T01:33:57.029Z,64.00
2018-02-08T01:36:23.861Z,78.95
2018-02-08T01:38:50.809Z,66.00
2018-02-08T01:41:17.661Z,61.60
2018-02-08T01:43:44.510Z,68.55
2018-02-08T01:46:11.381Z,67.32
2018-02-08T01:48:38.190Z,68.65
2018-02-08T01:51:05.038Z,62.95
2018-02-08T01:53:31.846Z,62.58
2018-02-08T01:55:59.449Z,68.25
2018-02-08T01:58:26.301Z,64.10
2018-02-08T02:00:53.149Z,63.38
2018-02-08T02:03:20.006Z,76.00
2018-02-08T02:05:46.865Z,73.22
2018-02-08T02:08:13.688Z,65.50
2018-02-08T02:10:40.496Z,70.93
2018-02-08T02:13:07.341Z,73.00
2018-02-08T02:15:34.168Z,73.97
2018-02-08T02:18:01.058Z,62.75
2018-02-08T02:20:27.886Z,55.80
2018-02-08T02:22:54.729Z,65.87
2018-02-08T02:25:21.597Z,64.80
2018-02-08T02:27:48.441Z,59.55
2018-02-08T02:30:16.043Z,59.00
2018-02-08T02:32:43.607Z,63.40
2018-02-08T02:35:11.184Z,64.43
2018-02-08T02:37:38.042Z,63.10
2018-02-08T02:40:04.885Z,64.60
2018-02-08T02:42:31.742Z,65.28
2018-02-08T02:44:58.595Z,62.97
2018-02-08T02:47:25.429Z,58.10
2018-02-08T02:49:52.245Z,61.42
2018-02-08T02:52:19.109Z,63.33
2018-02-08T02:54:46.077Z,63.60
2018-02-08T02:57:12.945Z,59.63
2018-02-08T02:59:40.541Z,59.17
2018-02-08T03:02:07.441Z,55.33
2018-02-08T03:04:34.265Z,61.30
2018-02-08T03:07:01.094Z,54.67
2018-02-08T03:09:27.989Z,58.03
2018-02-08T03:11:54.858Z,53.20
2018-02-08T03:14:21.710Z,54.38
2018-02-08T03:16:48.546Z,60.00
2018-02-08T03:19:15.462Z,57.80
2018-02-08T03:21:42.313Z,48.92
2018-02-08T03:24:09.150Z,49.53
2018-02-08T03:26:36.013Z,45.12
2018-02-08T03:29:02.857Z,46.00
2018-02-08T03:31:29.704Z,48.87
2018-02-08T03:33:56.581Z,50.85
2018-02-08T03:36:23.440Z,57.10
2018-02-08T03:38:50.282Z,55.12
2018-02-08T03:41:17.861Z,57.78
2018-02-08T03:43:44.717Z,49.90
2018-02-08T03:46:11.547Z,49.17
2018-02-08T03:48:38.414Z,51.78
2018-02-08T03:51:05.265Z,53.80
2018-02-08T03:53:32.101Z,48.60
2018-02-08T03:55:59.038Z,54.65
2018-02-08T03:58:25.842Z,51.63
2018-02-08T04:00:52.678Z,48.65
2018-02-08T04:03:19.517Z,49.05
2018-02-08T04:05:47.113Z,39.15
2018-02-08T04:08:13.981Z,41.00
2018-02-08T04:10:40.821Z,54.15
2018-02-08T04:13:07.685Z,49.60
2018-02-08T04:15:34.545Z,45.38
2018-02-08T04:18:01.374Z,43.25
2018-02-08T04:20:28.253Z,46.35
2018-02-08T04:22:55.090Z,42.85
2018-02-08T04:25:21.894Z,45.47
2018-02-08T04:27:48.737Z,47.00
2018-02-08T04:30:15.601Z,45.75
2018-02-08T04:32:43.194Z,47.28
2018-02-08T04:35:10.161Z,48.17
2018-02-08T04:37:37.745Z,47.58
2018-02-08T04:40:16.837Z,42.58
2018-02-08T04:42:56.053Z,52.40
2018-02-08T04:45:35.945Z,49.72
2018-02-08T04:48:06.873Z,45.75
2018-02-08T04:50:33.718Z,51.60
2018-02-08T04:53:00.706Z,45.15
2018-02-08T04:55:27.550Z,43.75
2018-02-08T04:57:54.397Z,46.67
2018-02-08T05:00:21.294Z,42.78
2018-02-08T05:02:50.013Z,41.90
2018-02-08T05:05:16.845Z,43.30
2018-02-08T05:07:43.681Z,47.45
2018-02-08T05:10:10.530Z,50.05
2018-02-08T05:12:37.377Z,45.25
2018-02-08T05:15:04.241Z,46.83
2018-02-08T05:17:31.841Z,51.97
2018-02-08T05:19:58.789Z,47.05
2018-02-08T05:22:25.609Z,48.22
2018-02-08T05:24:52.426Z,45.97
2018-02-08T05:27:19.261Z,39.40
2018-02-08T05:29:46.089Z,41.97
2018-02-08T05:32:12.954Z,55.35
2018-02-08T05:34:39.959Z,43.75
2018-02-08T05:37:07.578Z,47.62
2018-02-08T05:39:35.234Z,46.00
2018-02-08T05:42:03.148Z,43.05
2018-02-08T05:44:30.042Z,40.83
2018-02-08T05:46:57.262Z,41.30
2018-02-08T05:49:24.233Z,42.20
2018-02-08T05:51:51.845Z,41.10
2018-02-08T05:54:18.714Z,47.72
2018-02-08T05:56:45.562Z,41.80
2018-02-08T05:59:13.603Z,43.13
2018-02-08T06:01:40.830Z,31.05
2018-02-08T06:04:07.658Z,35.75
2018-02-08T06:06:35.258Z,32.72
2018-02-08T06:09:02.225Z,33.28
2018-02-08T06:11:29.046Z,34.83
2018-02-08T06:13:55.884Z,31.77
2018-02-08T06:16:22.733Z,33.83
2018-02-08T06:18:49.796Z,30.70
2018-02-08T06:21:16.614Z,38.03
2018-02-08T06:23:44.163Z,38.08
2018-02-08T06:26:11.008Z,35.92
2018-02-08T06:28:37.845Z,38.88
2018-02-08T06:31:04.665Z,34.50
2018-02-08T06:33:31.533Z,37.38
2018-02-08T06:35:59.069Z,33.38
2018-02-08T06:38:26.659Z,39.83
2018-02-08T06:40:53.469Z,34.67
2018-02-08T06:43:20.318Z,34.45
2018-02-08T06:45:47.149Z,35.40
2018-02-08T06:48:13.962Z,40.42
2018-02-08T06:50:40.835Z,39.67
2018-02-08T06:53:07.653Z,35.60
2018-02-08T06:55:34.473Z,41.15
2018-02-08T06:58:01.350Z,45.67
2018-02-08T07:00:28.166Z,45.83
2018-02-08T07:02:54.970Z,41.95
2018-02-08T07:05:21.826Z,42.85
2018-02-08T07:07:48.659Z,43.95
2018-02-08T07:10:15.477Z,54.35
2018-02-08T07:12:43.073Z,55.25
2018-02-08T07:15:09.910Z,54.08
2018-02-08T07:17:36.739Z,47.30
2018-02-08T07:20:04.340Z,20.85
2018-02-08T07:22:31.198Z,19.48
2018-02-08T07:24:58.046Z,21.37
2018-02-08T07:27:24.843Z,27.10
2018-02-08T07:29:51.687Z,26.80
2018-02-08T07:32:18.493Z,70.85
2018-02-08T07:34:46.123Z,78.28
2018-02-08T07:37:13.781Z,54.67
2018-02-08T07:39:40.650Z,51.63
2018-02-08T07:42:08.250Z,46.33
2018-02-08T07:44:35.087Z,57.65
2018-02-08T07:47:01.943Z,67.57
2018-02-08T07:49:28.786Z,21.67
2018-02-08T07:51:55.616Z,17.73
2018-02-08T07:54:22.456Z,20.67
2018-02-08T07:56:49.303Z,18.00
2018-02-08T07:59:16.138Z,18.83
2018-02-08T08:01:42.969Z,21.42
2018-02-08T08:04:10.554Z,20.45
2018-02-08T08:06:37.382Z,17.70
2018-02-08T08:09:04.993Z,22.58
2018-02-08T08:11:31.941Z,18.60
2018-02-08T08:13:58.749Z,19.65
2018-02-08T08:16:25.557Z,18.27
2018-02-08T08:18:53.141Z,20.92
2018-02-08T08:21:19.953Z,16.02
2018-02-08T08:23:47.522Z,16.35
2018-02-08T08:26:14.472Z,17.40
2018-02-08T08:28:41.330Z,18.50
2018-02-08T08:31:08.883Z,16.37
2018-02-08T08:33:35.745Z,18.83
2018-02-08T08:36:02.627Z,17.17
2018-02-08T08:38:29.482Z,19.35
2018-02-08T08:40:56.322Z,19.58
2018-02-08T08:43:23.174Z,16.92
2018-02-08T08:45:49.982Z,15.02
2018-02-08T08:48:16.786Z,19.30
2018-02-08T08:50:44.365Z,19.83
2018-02-08T08:53:11.216Z,21.02
2018-02-08T08:55:38.017Z,22.25
2018-02-08T08:58:05.606Z,14.20
2018-02-08T09:00:32.449Z,14.55
2018-02-08T09:02:59.270Z,18.30
2018-02-08T09:05:26.813Z,19.52
2018-02-08T09:07:53.630Z,16.00
2018-02-08T09:10:20.434Z,17.67
2018-02-08T09:12:47.281Z,16.30
2018-02-08T09:15:14.834Z,18.98
2018-02-08T09:17:41.669Z,19.20
2018-02-08T09:20:08.481Z,17.50
2018-02-08T09:22:35.314Z,16.08
2018-02-08T09:25:02.113Z,15.48
2018-02-08T09:27:28.945Z,16.95
2018-02-08T09:29:55.786Z,20.60
2018-02-08T09:32:22.635Z,19.42
2018-02-08T09:34:49.457Z,14.60
2018-02-08T09:37:17.046Z,13.68
2018-02-08T09:39:43.878Z,18.33
2018-02-08T09:42:10.844Z,19.73
2018-02-08T09:44:37.852Z,20.83
2018-02-08T09:47:04.746Z,19.80
2018-02-08T09:49:32.410Z,15.88
2018-02-08T09:52:00.107Z,14.93
2018-02-08T09:54:27.238Z,21.30
2018-02-08T09:56:54.187Z,16.75
2018-02-08T09:59:21.766Z,19.12
2018-02-08T10:01:49.349Z,14.82
2018-02-08T10:04:16.228Z,15.10
2018-02-08T10:06:43.038Z,16.35
2018-02-08T10:09:09.877Z,17.50
2018-02-08T10:11:36.685Z,16.50
2018-02-08T10:14:03.486Z,17.67
2018-02-08T10:16:30.329Z,17.87
2018-02-08T10:18:57.236Z,20.30
2018-02-08T10:21:24.081Z,19.35
2018-02-08T10:23:51.653Z,17.65
2018-02-08T10:26:18.482Z,20.45
2018-02-08T10:28:46.046Z,18.92
2018-02-08T10:31:12.873Z,18.00
2018-02-08T10:33:40.458Z,18.77
2018-02-08T10:36:07.277Z,22.45
2018-02-08T10:38:34.864Z,17.62
2018-02-08T10:41:01.658Z,19.83
2018-02-08T10:43:28.496Z,16.60
2018-02-08T10:45:55.313Z,16.98
2018-02-08T10:48:22.113Z,17.00
2018-02-08T10:50:49.697Z,19.58
2018-02-08T10:53:16.526Z,14.10
2018-02-08T10:55:43.325Z,15.07
2018-02-08T10:58:10.178Z,16.55
2018-02-08T11:00:37.014Z,16.23
2018-02-08T11:03:03.854Z,17.70
2018-02-08T11:05:30.704Z,18.02
2018-02-08T11:07:58.290Z,14.02
2018-02-08T11:10:25.099Z,16.62
2018-02-08T11:12:51.928Z,16.55
2018-02-08T11:15:18.849Z,29.52
2018-02-08T11:17:45.645Z,24.02
2018-02-08T11:20:13.197Z,26.20
2018-02-08T11:22:40.034Z,26.95
2018-02-08T11:25:06.874Z,25.75
2018-02-08T11:27:33.693Z,22.13
2018-02-08T11:30:00.536Z,29.77
2018-02-08T11:32:27.494Z,28.00
2018-02-08T11:34:54.325Z,26.73
2018-02-08T11:37:21.126Z,25.20
2018-02-08T11:39:47.950Z,25.35
2018-02-08T11:42:15.517Z,24.63
2018-02-08T11:44:43.077Z,25.80
2018-02-08T11:47:09.909Z,25.55
2018-02-08T11:49:36.709Z,25.15
2018-02-08T11:52:03.643Z,29.50
2018-02-08T11:54:30.679Z,25.98
2018-02-08T11:56:57.659Z,22.85
2018-02-08T11:59:25.295Z,29.80
2018-02-08T12:01:52.186Z,21.70
2018-02-08T12:04:19.899Z,30.70
2018-02-08T12:06:46.819Z,25.30
2018-02-08T12:09:13.755Z,24.30
2018-02-08T12:11:40.657Z,25.75
2018-02-08T12:14:08.371Z,24.48
2018-02-08T12:16:35.307Z,23.30
2018-02-08T12:19:02.235Z,26.12
2018-02-08T12:21:29.164Z,24.80
2018-02-08T12:23:56.835Z,23.92
2018-02-08T12:26:23.755Z,26.10
2018-02-08T12:28:50.640Z,24.12
2018-02-08T12:31:17.551Z,22.73
2018-02-08T12:33:45.248Z,28.50
2018-02-08T12:36:12.929Z,29.37
2018-02-08T12:38:39.836Z,24.37
2018-02-08T12:41:06.736Z,23.40
2018-02-08T12:43:33.614Z,23.25
2018-02-08T12:46:00.483Z,22.08
2018-02-08T12:48:27.448Z,24.92
2018-02-08T12:50:54.350Z,25.45
2018-02-08T12:53:21.205Z,27.58
2018-02-08T12:55:48.833Z,23.52
2018-02-08T12:58:15.638Z,22.85
2018-02-08T13:00:42.453Z,23.42
2018-02-08T13:03:09.289Z,21.25
2018-02-08T13:05:36.853Z,22.77
2018-02-08T13:08:03.653Z,25.58
2018-02-08T13:10:30.598Z,21.90
2018-02-08T13:12:57.497Z,28.65
2018-02-08T13:15:24.310Z,22.35
2018-02-08T13:17:51.893Z,23.50
2018-02-08T13:20:19.481Z,24.25
2018-02-08T13:22:46.354Z,25.75
2018-02-08T13:25:13.202Z,22.65
2018-02-08T13:27:40.093Z,22.55
2018-02-08T13:30:06.918Z,21.50
2018-02-08T13:32:34.561Z,29.70
2018-02-08T13:35:01.402Z,28.98
2018-02-08T13:37:28.229Z,29.92
2018-02-08T13:39:57.857Z,25.20
2018-02-08T13:42:24.802Z,29.90
2018-02-08T13:44:51.681Z,27.80
2018-02-08T13:47:20.473Z,24.27
2018-02-08T13:49:54.158Z,25.65
2018-02-08T13:52:27.078Z,26.65
2018-02-08T13:57:29.126Z,25.33
2018-02-08T13:59:56.714Z,23.08
2018-02-08T14:02:23.562Z,26.30
2018-02-08T14:04:50.402Z,26.40
2018-02-08T14:07:17.274Z,26.90
2018-02-08T14:09:44.090Z,23.05
2018-02-08T14:12:10.930Z,26.92
2018-02-08T14:14:37.870Z,25.45
2018-02-08T14:17:04.673Z,22.20
2018-02-08T14:19:31.481Z,24.52
2018-02-08T14:21:58.315Z,25.55
2018-02-08T14:24:25.158Z,23.55
2018-02-08T14:26:51.998Z,20.33
2018-02-08T14:29:18.817Z,22.08
2018-02-08T14:31:45.633Z,26.77
2018-02-08T14:34:12.432Z,25.17
2018-02-08T14:36:39.378Z,24.55
2018-02-08T14:39:06.194Z,25.67
2018-02-08T14:41:33.010Z,24.05
2018-02-08T14:44:00.627Z,28.62
2018-02-08T14:46:27.434Z,30.25
2018-02-08T14:48:54.234Z,29.42
2018-02-08T14:51:21.066Z,28.75
2018-02-08T14:53:47.909Z,27.95
2018-02-08T14:56:14.741Z,25.98
2018-02-08T14:58:41.557Z,29.77
2018-02-08T15:01:08.353Z,29.50
2018-02-08T15:03:35.173Z,33.20
2018-02-08T15:06:02.034Z,28.75
2018-02-08T15:08:28.873Z,26.60
2018-02-08T15:10:55.833Z,27.85
2018-02-08T15:13:23.410Z,31.75
2018-02-08T15:15:50.957Z,30.05
2018-02-08T15:18:17.810Z,32.15
2018-02-08T15:20:45.358Z,27.75
2018-02-08T15:23:12.192Z,30.17
2018-02-08T15:25:39.805Z,28.98
2018-02-08T15:28:06.729Z,30.10
2018-02-08T15:30:34.253Z,25.98
2018-02-08T15:33:01.114Z,26.10
2018-02-08T15:35:28.684Z,29.48
2018-02-08T15:37:55.550Z,30.20
2018-02-08T15:40:22.530Z,27.65
2018-02-08T15:42:49.378Z,33.42
2018-02-08T15:45:16.394Z,29.60
2018-02-08T15:47:43.404Z,30.65
2018-02-08T15:50:10.466Z,28.60
2018-02-08T15:52:37.423Z,29.10
2018-02-08T15:55:04.785Z,28.30
2018-02-08T15:57:31.773Z,27.27
2018-02-08T15:59:58.605Z,28.30
2018-02-08T16:02:25.490Z,25.73
2018-02-08T16:04:53.149Z,26.65
2018-02-08T16:07:20.782Z,26.55
2018-02-08T16:09:47.655Z,29.40
2018-02-08T16:12:14.498Z,34.28
2018-02-08T16:14:42.049Z,30.50
2018-02-08T16:17:09.002Z,27.08
2018-02-08T16:19:36.076Z,24.90
2018-02-08T16:22:04.547Z,27.98
2018-02-08T16:24:31.616Z,34.80
2018-02-08T16:26:58.477Z,33.75
2018-02-08T16:29:25.333Z,27.50
2018-02-08T16:31:52.161Z,32.63
2018-02-08T16:34:18.978Z,28.08
2018-02-08T16:36:46.065Z,35.17
2018-02-08T16:39:13.646Z,38.47
2018-02-08T16:41:41.258Z,36.03
2018-02-08T16:44:08.099Z,35.10
2018-02-08T16:46:34.922Z,31.55
2018-02-08T16:49:01.807Z,35.95
2018-02-08T16:51:29.558Z,34.90
2018-02-08T16:53:56.470Z,30.67
2018-02-08T16:56:23.409Z,34.03
2018-02-08T16:58:50.425Z,28.33
2018-02-08T17:01:17.406Z,31.52
2018-02-08T17:03:44.385Z,32.28
2018-02-08T17:06:11.253Z,30.88
2018-02-08T17:08:38.865Z,30.35
2018-02-08T17:11:05.742Z,28.87
2018-02-08T17:13:32.734Z,33.60
2018-02-08T17:16:00.634Z,33.67
2018-02-08T17:18:28.935Z,30.73
2018-02-08T17:20:56.051Z,26.98
2018-02-08T17:23:23.939Z,29.77
2018-02-08T17:25:50.913Z,31.95
2018-02-08T17:28:18.502Z,41.47
2018-02-08T17:30:45.321Z,32.95
2018-02-08T17:33:14.210Z,34.53
2018-02-08T17:35:41.201Z,33.38
2018-02-08T17:38:08.430Z,36.95
2018-02-08T17:40:36.029Z,37.72
2018-02-08T17:43:02.990Z,36.25
2018-02-08T17:45:30.089Z,40.78
2018-02-08T17:47:56.990Z,38.50
2018-02-08T17:50:23.869Z,39.78
2018-02-08T17:52:51.826Z,37.95
2018-02-08T17:55:18.695Z,39.88
2018-02-08T17:57:45.546Z,37.75
2018-02-08T18:00:12.426Z,36.35
2018-02-08T18:02:40.245Z,39.05
2018-02-08T18:05:07.263Z,39.75
2018-02-08T18:07:34.349Z,43.50
2018-02-08T18:10:01.502Z,48.45
2018-02-08T18:12:28.777Z,46.10
2018-02-08T18:14:55.626Z,44.33
2018-02-08T18:17:23.994Z,43.45
2018-02-08T18:19:51.098Z,41.83
2018-02-08T18:22:18.106Z,58.55
2018-02-08T18:24:44.913Z,51.97
2018-02-08T18:27:11.782Z,49.50
2018-02-08T18:29:38.588Z,60.22
2018-02-08T18:32:05.501Z,55.67
2018-02-08T18:34:33.126Z,44.60
2018-02-08T18:36:59.957Z,50.70
2018-02-08T18:39:27.274Z,51.17
2018-02-08T18:41:55.016Z,47.10
2018-02-08T18:44:21.884Z,42.55
2018-02-08T18:46:48.910Z,39.72
2018-02-08T18:49:16.061Z,42.70
2018-02-08T18:51:43.621Z,38.83
2018-02-08T18:54:10.545Z,41.35
2018-02-08T18:56:37.639Z,38.42
2018-02-08T18:59:04.652Z,41.50
2018-02-08T19:01:31.626Z,36.25
2018-02-08T19:03:58.578Z,38.10
2018-02-08T19:06:25.481Z,38.78
2018-02-08T19:08:52.406Z,41.33
2018-02-08T19:11:19.294Z,34.88
2018-02-08T19:13:47.053Z,37.92
2018-02-08T19:16:14.002Z,39.05
2018-02-08T19:18:40.962Z,42.15
2018-02-08T19:21:07.871Z,38.97
2018-02-08T19:23:35.690Z,37.95
2018-02-08T19:26:02.772Z,42.38
2018-02-08T19:28:29.699Z,37.13
2018-02-08T19:30:56.502Z,34.03
2018-02-08T19:33:23.462Z,37.38
2018-02-08T19:35:52.239Z,37.15
2018-02-08T19:38:20.038Z,34.50
2018-02-08T19:40:46.970Z,38.17
2018-02-08T19:43:13.910Z,37.45
2018-02-08T19:45:40.769Z,38.65
2018-02-08T19:48:07.670Z,37.80
2018-02-08T19:50:34.511Z,37.17
2018-02-08T19:53:01.482Z,39.25
2018-02-08T19:55:28.597Z,33.50
2018-02-08T19:57:55.662Z,35.65
2018-02-08T20:00:22.606Z,39.45
2018-02-08T20:02:49.570Z,33.65
2018-02-08T20:05:16.694Z,33.33
2018-02-08T20:07:43.578Z,37.15
2018-02-08T20:10:10.476Z,36.90
2018-02-08T20:12:37.370Z,38.30
2018-02-08T20:15:05.216Z,43.87
2018-02-08T20:17:32.940Z,45.55
2018-02-08T20:20:00.766Z,48.92
2018-02-08T20:22:27.601Z,53.67
2018-02-08T20:24:54.470Z,50.95
2018-02-08T20:27:22.074Z,44.65
2018-02-08T20:29:49.094Z,51.10
2018-02-08T20:32:16.267Z,50.15
2018-02-08T20:34:43.297Z,42.15
2018-02-08T20:37:10.382Z,48.15
2018-02-08T20:39:37.454Z,48.03
2018-02-08T20:42:04.641Z,48.83
2018-02-08T20:44:31.507Z,48.38
2018-02-08T20:46:58.470Z,49.55
2018-02-08T20:49:25.426Z,53.17
2018-02-08T20:51:52.590Z,53.42
2018-02-08T20:54:20.459Z,54.17
2018-02-08T20:56:48.266Z,56.33
2018-02-08T20:59:15.155Z,53.30
2018-02-08T21:01:42.022Z,53.05
2018-02-08T21:04:09.725Z,57.90
2018-02-08T21:06:36.830Z,54.63
2018-02-08T21:09:04.015Z,59.15
2018-02-08T21:11:31.704Z,49.20
2018-02-08T21:13:58.619Z,49.13
2018-02-08T21:16:26.281Z,49.33
2018-02-08T21:18:54.744Z,47.40
2018-02-08T21:21:21.689Z,46.42
2018-02-08T21:23:48.758Z,45.90
2018-02-08T21:26:16.554Z,44.88
2018-02-08T21:28:44.507Z,40.28
2018-02-08T21:31:11.506Z,48.53
2018-02-08T21:33:39.526Z,42.50
2018-02-08T21:36:06.406Z,49.53
2018-02-08T21:38:33.406Z,47.78
2018-02-08T21:41:00.254Z,51.58
2018-02-08T21:43:27.305Z,44.15
2018-02-08T21:45:54.299Z,53.05
2018-02-08T21:48:21.194Z,50.35
2018-02-08T21:50:48.043Z,50.17
2018-02-08T21:53:15.734Z,60.70
2018-02-08T21:55:42.546Z,47.40
2018-02-08T21:58:09.614Z,48.80
2018-02-08T22:00:36.505Z,56.10
2018-02-08T22:03:03.494Z,52.65
2018-02-08T22:05:30.523Z,52.80
2018-02-08T22:07:57.446Z,50.20
2018-02-08T22:10:24.514Z,51.33
2018-02-08T22:12:51.645Z,45.35
2018-02-08T22:15:18.610Z,51.65
2018-02-08T22:17:45.582Z,49.80
2018-02-08T22:20:12.502Z,46.53
2018-02-08T22:22:39.500Z,43.35
2018-02-08T22:25:06.482Z,47.62
2018-02-08T22:27:33.358Z,42.30
2018-02-08T22:30:00.190Z,45.50
2018-02-08T22:32:27.068Z,42.35
2018-02-08T22:34:54.048Z,50.30
2018-02-08T22:37:21.057Z,44.10
2018-02-08T22:39:47.927Z,40.83
2018-02-08T22:42:15.562Z,50.20
2018-02-08T22:44:42.718Z,50.30
2018-02-08T22:47:09.678Z,54.60
2018-02-08T22:49:36.571Z,49.55
2018-02-08T22:52:03.427Z,53.75
2018-02-08T22:54:30.270Z,53.00
2018-02-08T22:56:57.096Z,51.15
2018-02-08T22:59:23.925Z,43.03
2018-02-08T23:01:50.840Z,44.75
2018-02-08T23:04:18.458Z,47.25
2018-02-08T23:06:45.314Z,41.65
2018-02-08T23:09:12.438Z,41.50
2018-02-08T23:11:39.406Z,42.50
2018-02-08T23:14:07.235Z,40.08
2018-02-08T23:16:34.190Z,43.38
2018-02-08T23:19:01.158Z,41.97
2018-02-08T23:21:27.980Z,37.75
2018-02-08T23:23:55.017Z,40.08
2018-02-08T23:26:22.154Z,41.37
2018-02-08T23:28:48.982Z,37.78
2018-02-08T23:31:16.626Z,43.50
2018-02-08T23:33:43.615Z,37.78
2018-02-08T23:36:10.567Z,38.75
2018-02-08T23:38:37.436Z,37.92
2018-02-08T23:41:04.258Z,37.50
2018-02-08T23:43:31.426Z,43.17
2018-02-08T23:45:58.430Z,44.53
2018-02-08T23:48:25.422Z,47.60
2018-02-08T23:50:52.383Z,46.30
2018-02-08T23:53:19.389Z,47.33
2018-02-08T23:55:46.346Z,39.92
2018-02-08T23:58:13.186Z,37.35
